Time;durP1;ratioP1;P1;durP2;ratioP2;P2;SDS_P1;SDS_P2;PMS_P1;PMS_P2;Temp;Humidity;BMP_temperature;BMP_pressure;BME280_temperature;BME280_humidity;BME280_pressure;Samples;Min_cycle;Max_cycle;Signal;HPM_P1;HPM_P2
2022/07/19 00:00:36;;;;;;;4.10;2.75;;;23.70;79.70;;;;;;10436649;28;20029;-62
2022/07/19 00:05:37;;;;;;;4.40;3.22;;;23.60;79.60;;;;;;10436818;28;20442;-62
2022/07/19 00:10:38;;;;;;;2.97;2.63;;;23.60;79.70;;;;;;10438622;28;20064;-62
2022/07/19 00:15:39;;;;;;;3.78;2.65;;;23.60;79.70;;;;;;10435581;28;20188;-62
2022/07/19 00:20:40;;;;;;;4.65;2.97;;;23.50;79.70;;;;;;10438877;28;20053;-61
2022/07/19 00:25:40;;;;;;;4.18;3.08;;;23.40;79.70;;;;;;10420927;28;20040;-62
2022/07/19 00:30:41;;;;;;;5.25;3.13;;;23.50;79.80;;;;;;10443460;28;20121;-61
2022/07/19 00:35:42;;;;;;;5.07;3.00;;;23.40;79.70;;;;;;10446591;28;20120;-62
2022/07/19 00:40:43;;;;;;;4.70;2.67;;;23.40;79.80;;;;;;10447016;28;20073;-61
2022/07/19 00:45:43;;;;;;;4.72;2.72;;;23.40;79.80;;;;;;10446304;28;20029;-62
2022/07/19 00:50:44;;;;;;;4.72;2.85;;;23.30;79.80;;;;;;10446661;28;20032;-62
2022/07/19 00:55:45;;;;;;;4.90;3.10;;;23.30;79.90;;;;;;10444549;28;20049;-62
2022/07/19 01:00:46;;;;;;;3.95;3.08;;;23.30;79.90;;;;;;10446081;28;20036;-62
2022/07/19 01:05:48;;;;;;;4.82;3.15;;;23.20;79.90;;;;;;10445847;28;20026;-62
2022/07/19 01:10:49;;;;;;;4.07;2.55;;;23.20;80.00;;;;;;10445312;28;20396;-62
2022/07/19 01:15:50;;;;;;;3.80;3.03;;;23.20;80.00;;;;;;10445181;28;20633;-62
2022/07/19 01:20:52;;;;;;;6.00;3.10;;;23.10;80.00;;;;;;10443712;28;20037;-61
2022/07/19 01:25:52;;;;;;;3.80;2.65;;;23.10;80.00;;;;;;10443487;28;20036;-61
2022/07/19 01:30:53;;;;;;;4.22;3.05;;;23.10;80.10;;;;;;10442954;28;20529;-62
2022/07/19 01:35:54;;;;;;;4.22;3.05;;;23.10;80.10;;;;;;10426321;28;20017;-61
2022/07/19 01:40:57;;;;;;;3.90;2.95;;;23.00;80.10;;;;;;10443784;28;20044;-62
2022/07/19 01:45:58;;;;;;;3.08;2.55;;;23.00;80.10;;;;;;10443744;28;20116;-62
2022/07/19 01:50:58;;;;;;;5.00;3.10;;;23.00;80.10;;;;;;10444325;28;20050;-62
2022/07/19 01:55:59;;;;;;;3.45;2.90;;;22.90;80.10;;;;;;10441826;28;20045;-62
2022/07/19 02:01:00;;;;;;;4.43;3.08;;;22.90;80.10;;;;;;10443906;28;20029;-62
2022/07/19 02:06:00;;;;;;;6.55;3.65;;;22.90;80.70;;;;;;10443930;28;20067;-61
2022/07/19 02:11:34;;;;;;;4.90;2.90;;;22.80;80.10;;;;;;10443588;28;20029;-62
2022/07/19 02:16:21;;;;;;;5.65;3.20;;;22.80;80.10;;;;;;10442815;28;20498;-62
2022/07/19 02:21:22;;;;;;;6.75;3.60;;;22.80;80.10;;;;;;10442329;28;20172;-62
2022/07/19 02:26:23;;;;;;;5.03;3.20;;;22.80;80.20;;;;;;10438692;28;20164;-62
2022/07/19 02:31:24;;;;;;;4.75;3.50;;;22.70;80.10;;;;;;10441272;28;20025;-62
2022/07/19 02:36:24;;;;;;;6.15;3.28;;;22.70;80.10;;;;;;10442436;28;20033;-62
2022/07/19 02:41:25;;;;;;;4.57;3.00;;;22.70;80.20;;;;;;10441051;28;20710;-62
2022/07/19 02:46:26;;;;;;;4.35;3.25;;;22.60;80.10;;;;;;10439701;28;20044;-62
2022/07/19 02:51:27;;;;;;;4.13;3.30;;;22.60;80.20;;;;;;10441320;28;20036;-62
2022/07/19 02:56:27;;;;;;;3.72;3.35;;;22.60;80.20;;;;;;10442380;28;20037;-62
2022/07/19 03:01:29;;;;;;;4.50;3.63;;;22.50;80.20;;;;;;10440239;28;20034;-62
2022/07/19 03:06:30;;;;;;;5.50;3.17;;;22.50;80.20;;;;;;10439735;28;20064;-62
2022/07/19 03:11:30;;;;;;;4.85;3.22;;;22.50;80.20;;;;;;10438611;28;20104;-62
2022/07/19 03:16:32;;;;;;;5.05;3.10;;;22.50;80.20;;;;;;10437357;28;20094;-62
2022/07/19 03:21:33;;;;;;;5.07;3.40;;;22.40;80.20;;;;;;10439564;28;20036;-62
2022/07/19 03:26:33;;;;;;;5.10;3.50;;;22.40;80.10;;;;;;10436149;28;20045;-62
2022/07/19 03:31:34;;;;;;;6.47;3.30;;;22.40;80.70;;;;;;10440335;28;20494;-62
2022/07/19 03:36:35;;;;;;;6.50;3.78;;;22.30;80.10;;;;;;10439581;28;20467;-61
2022/07/19 03:41:36;;;;;;;4.43;3.40;;;22.30;80.10;;;;;;10439776;28;20037;-62
2022/07/19 03:46:36;;;;;;;4.60;3.10;;;22.30;80.10;;;;;;10439564;28;20029;-61
2022/07/19 03:51:37;;;;;;;4.55;3.33;;;22.30;80.10;;;;;;10439402;28;20038;-62
2022/07/19 03:56:38;;;;;;;4.70;3.47;;;22.20;80.10;;;;;;10440917;28;20061;-62
2022/07/19 04:01:40;;;;;;;4.75;3.40;;;22.20;80.10;;;;;;10391568;28;20882;-62
2022/07/19 04:06:41;;;;;;;4.32;3.47;;;22.20;80.10;;;;;;10359946;28;20077;-62
2022/07/19 04:11:42;;;;;;;5.15;3.95;;;22.20;80.10;;;;;;10362848;28;20898;-62
2022/07/19 04:16:43;;;;;;;6.70;3.47;;;22.10;80.10;;;;;;10347264;28;20540;-62
2022/07/19 04:21:43;;;;;;;3.95;3.28;;;22.10;80.10;;;;;;10349014;28;20040;-62
2022/07/19 04:26:44;;;;;;;5.15;3.65;;;22.10;80.10;;;;;;10365789;28;20580;-62
2022/07/19 04:31:45;;;;;;;4.60;3.08;;;22.10;80.10;;;;;;10366660;28;21010;-62
2022/07/19 04:36:45;;;;;;;4.47;3.28;;;22.10;80.10;;;;;;10366926;28;20029;-61
2022/07/19 04:41:46;;;;;;;3.97;3.50;;;22.10;80.20;;;;;;10366171;28;20087;-61
2022/07/19 04:46:47;;;;;;;5.00;3.53;;;22.10;80.20;;;;;;10365839;28;20482;-62
2022/07/19 04:51:47;;;;;;;4.97;3.80;;;22.00;80.10;;;;;;10366354;28;20127;-62
2022/07/19 04:56:48;;;;;;;6.95;3.63;;;22.00;80.10;;;;;;10366857;28;21068;-62
2022/07/19 05:01:49;;;;;;;6.07;4.15;;;22.00;80.10;;;;;;10350339;28;20041;-62
2022/07/19 05:06:56;;;;;;;4.95;3.47;;;22.00;80.10;;;;;;10348514;28;20507;-62
2022/07/19 05:11:57;;;;;;;6.67;4.07;;;22.00;80.10;;;;;;10367391;28;20123;-61
2022/07/19 05:16:57;;;;;;;4.95;3.42;;;22.00;80.10;;;;;;10369808;28;20112;-61
2022/07/19 05:21:58;;;;;;;6.97;3.85;;;22.00;80.10;;;;;;10372995;28;20917;-61
2022/07/19 05:27:00;;;;;;;5.68;3.35;;;22.00;80.10;;;;;;10369668;28;20137;-62
2022/07/19 05:32:00;;;;;;;4.55;3.33;;;22.00;80.10;;;;;;10368197;28;20116;-63
2022/07/19 05:37:01;;;;;;;4.28;3.30;;;21.90;80.00;;;;;;10372918;28;20809;-63
2022/07/19 05:42:02;;;;;;;4.45;3.47;;;21.90;80.00;;;;;;10372316;28;20040;-63
2022/07/19 05:47:03;;;;;;;5.43;3.45;;;21.90;79.90;;;;;;10374108;28;20036;-63
2022/07/19 05:52:04;;;;;;;5.18;3.42;;;21.90;79.90;;;;;;10366032;28;20025;-63
2022/07/19 05:57:04;;;;;;;4.32;3.40;;;21.90;79.90;;;;;;10369775;28;20048;-63
2022/07/19 06:02:05;;;;;;;5.10;3.60;;;21.90;79.90;;;;;;10362678;28;20428;-62
2022/07/19 06:07:06;;;;;;;4.78;3.78;;;21.90;79.90;;;;;;10361970;28;20424;-64
2022/07/19 06:12:07;;;;;;;5.03;3.38;;;22.00;79.90;;;;;;10353636;28;20106;-65
2022/07/19 06:17:08;;;;;;;9.10;5.72;;;22.00;79.80;;;;;;10355147;28;20069;-63
2022/07/19 06:22:08;;;;;;;9.02;6.95;;;22.00;80.20;;;;;;10343519;28;20150;-64
2022/07/19 06:27:09;;;;;;;9.75;6.47;;;21.90;80.70;;;;;;10325920;28;20033;-62
2022/07/19 06:32:10;;;;;;;10.23;7.20;;;21.90;81.00;;;;;;10354294;28;20029;-63
2022/07/19 06:37:11;;;;;;;10.32;6.38;;;21.90;81.20;;;;;;10353952;28;20330;-63
2022/07/19 06:42:11;;;;;;;9.45;5.80;;;21.90;81.40;;;;;;10352354;28;20045;-62
2022/07/19 06:47:12;;;;;;;8.98;6.25;;;21.90;81.40;;;;;;10353590;28;20673;-62
2022/07/19 06:52:12;;;;;;;9.90;5.82;;;22.00;81.60;;;;;;10354888;28;20939;-62
2022/07/19 06:57:13;;;;;;;14.15;6.30;;;22.00;81.70;;;;;;10354683;28;20592;-64
2022/07/19 07:02:14;;;;;;;7.80;6.03;;;22.00;81.80;;;;;;10335389;28;20479;-62
2022/07/19 07:07:15;;;;;;;12.45;5.72;;;22.20;81.80;;;;;;10354729;28;20033;-62
2022/07/19 07:12:16;;;;;;;12.35;6.32;;;22.30;82.10;;;;;;10353004;28;20435;-62
2022/07/19 07:17:17;;;;;;;7.85;5.28;;;22.40;82.40;;;;;;10354744;28;20052;-62
2022/07/19 07:22:18;;;;;;;10.57;6.07;;;22.50;82.00;;;;;;10333999;28;20045;-62
2022/07/19 07:27:19;;;;;;;10.00;5.25;;;22.60;82.10;;;;;;10354120;28;20490;-62
2022/07/19 07:32:20;;;;;;;6.82;4.70;;;22.80;82.30;;;;;;10351405;28;20067;-64
2022/07/19 07:37:20;;;;;;;9.05;4.43;;;22.90;82.20;;;;;;10352241;28;20107;-62
2022/07/19 07:42:22;;;;;;;8.38;4.47;;;23.00;82.10;;;;;;10353046;28;20044;-62
2022/07/19 07:47:22;;;;;;;7.57;3.80;;;23.20;82.00;;;;;;10350444;28;20217;-63
2022/07/19 07:52:23;;;;;;;5.35;3.70;;;23.40;81.70;;;;;;10333594;28;20330;-63
2022/07/19 07:57:24;;;;;;;9.32;3.55;;;23.60;81.30;;;;;;10354088;28;20099;-63
2022/07/19 08:02:24;;;;;;;7.15;3.83;;;23.80;80.90;;;;;;10359453;28;20037;-64
2022/07/19 08:07:25;;;;;;;5.60;3.45;;;24.00;80.50;;;;;;10361163;28;20032;-63
2022/07/19 08:12:26;;;;;;;3.58;3.10;;;24.10;80.30;;;;;;10351224;28;20032;-62
2022/07/19 08:17:27;;;;;;;7.60;3.15;;;24.40;80.10;;;;;;10354037;28;20025;-61
2022/07/19 08:22:29;;;;;;;7.40;2.88;;;24.40;80.10;;;;;;10359349;28;20396;-61
2022/07/19 08:27:29;;;;;;;4.50;2.72;;;24.60;79.70;;;;;;10340074;28;20574;-63
2022/07/19 08:32:30;;;;;;;7.60;3.45;;;24.80;79.30;;;;;;10337482;28;20283;-62
2022/07/19 08:37:31;;;;;;;4.90;2.63;;;25.00;78.80;;;;;;10350474;28;20020;-62
2022/07/19 08:42:32;;;;;;;4.05;2.53;;;25.10;78.30;;;;;;10358272;28;20569;-62
2022/07/19 08:47:34;;;;;;;5.13;2.97;;;25.40;77.60;;;;;;10369937;28;20032;-65
2022/07/19 08:52:36;;;;;;;4.28;2.55;;;25.50;77.10;;;;;;10370393;28;20136;-66
2022/07/19 08:57:57;;;;;;;5.15;2.88;;;25.60;77.20;;;;;;10379742;28;20091;-66
2022/07/19 09:02:59;;;;;;;4.82;3.22;;;25.70;76.90;;;;;;10382475;28;20040;-66
2022/07/19 09:08:07;;;;;;;4.10;2.85;;;25.60;77.00;;;;;;10374218;28;20029;-67
2022/07/19 09:13:16;;;;;;;4.90;2.42;;;25.40;77.20;;;;;;10355965;28;20087;-66
2022/07/19 09:18:19;;;;;;;5.50;2.80;;;25.20;77.20;;;;;;10373131;28;20115;-64
2022/07/19 09:23:20;;;;;;;3.95;2.92;;;25.10;77.70;;;;;;10378087;28;20336;-66
2022/07/19 09:28:24;;;;;;;5.65;2.83;;;25.00;77.80;;;;;;10374361;28;20021;-66
2022/07/19 09:33:30;;;;;;;4.43;2.67;;;24.90;77.70;;;;;;10378148;28;20033;-63
2022/07/19 09:38:32;;;;;;;5.53;2.83;;;24.90;77.70;;;;;;10371692;28;20038;-66
2022/07/19 09:43:52;;;;;;;4.45;2.42;;;24.80;77.80;;;;;;10370725;28;20037;-64
2022/07/19 09:48:53;;;;;;;3.35;2.72;;;24.90;77.30;;;;;;10366838;28;20343;-62
2022/07/19 09:53:54;;;;;;;5.50;2.58;;;24.80;77.50;;;;;;10375005;28;20073;-66
2022/07/19 09:58:56;;;;;;;3.88;2.45;;;24.90;77.30;;;;;;10373573;28;20632;-66
2022/07/19 10:04:02;;;;;;;3.78;2.42;;;24.90;77.20;;;;;;10364351;28;20024;-63
2022/07/19 10:09:05;;;;;;;3.40;2.47;;;24.90;76.90;;;;;;10360763;28;20316;-62
2022/07/19 10:14:06;;;;;;;3.08;2.50;;;25.00;77.20;;;;;;10364715;28;20039;-65
2022/07/19 10:19:23;;;;;;;4.60;2.60;;;25.00;76.70;;;;;;10363463;28;20578;-61
2022/07/19 10:24:43;;;;;;;4.07;2.60;;;25.00;76.20;;;;;;10363128;28;20521;-62
2022/07/19 10:29:44;;;;;;;10.35;2.55;;;25.10;76.10;;;;;;10360798;28;20029;-61
2022/07/19 10:34:51;;;;;;;3.60;2.50;;;25.10;76.00;;;;;;10370104;28;20549;-65
2022/07/19 10:39:57;;;;;;;4.30;2.28;;;25.20;75.70;;;;;;10366227;28;20465;-61
2022/07/19 10:45:01;;;;;;;4.35;2.35;;;25.20;75.10;;;;;;10362936;28;20446;-61
2022/07/19 10:50:07;;;;;;;3.17;2.50;;;25.30;75.10;;;;;;10362791;28;20585;-66
2022/07/19 10:55:17;;;;;;;2.92;2.28;;;25.40;74.60;;;;;;10343092;28;20037;-64
2022/07/19 11:00:28;;;;;;;5.32;2.35;;;25.50;74.20;;;;;;10362531;28;20044;-63
2022/07/19 11:05:29;;;;;;;2.55;2.08;;;25.50;74.20;;;;;;10361326;28;20102;-62
2022/07/19 11:10:30;;;;;;;4.18;2.53;;;25.50;74.30;;;;;;10344955;28;20036;-60
2022/07/19 11:15:31;;;;;;;3.58;2.50;;;25.60;74.00;;;;;;10361595;28;20053;-64
2022/07/19 11:20:34;;;;;;;7.03;3.40;;;25.70;73.70;;;;;;10362041;28;20120;-63
2022/07/19 11:25:41;;;;;;;6.60;2.63;;;25.80;73.50;;;;;;10360467;28;20032;-64
2022/07/19 11:30:42;;;;;;;2.40;2.20;;;25.90;73.30;;;;;;10364005;28;20570;-63
2022/07/19 11:35:59;;;;;;;4.50;2.45;;;26.00;73.00;;;;;;10363632;28;20543;-62
2022/07/19 11:41:00;;;;;;;4.18;2.13;;;26.00;72.80;;;;;;10360329;28;20199;-63
2022/07/19 11:46:01;;;;;;;3.05;2.30;;;26.10;72.30;;;;;;10361173;28;20492;-62
2022/07/19 11:51:08;;;;;;;3.10;2.17;;;26.20;72.00;;;;;;10356487;28;20036;-62
2022/07/19 11:56:18;;;;;;;2.95;2.40;;;26.30;71.60;;;;;;10363804;28;20514;-62
2022/07/19 12:01:39;;;;;;;5.78;2.40;;;26.40;71.00;;;;;;10358258;28;20135;-62
2022/07/19 12:06:48;;;;;;;2.85;2.20;;;26.40;70.60;;;;;;10351715;28;20528;-65
2022/07/19 12:11:52;;;;;;;4.65;2.35;;;26.50;70.60;;;;;;10343406;28;20385;-66
2022/07/19 12:17:11;;;;;;;3.83;2.10;;;26.60;70.80;;;;;;10359111;28;20446;-62
2022/07/19 12:22:33;;;;;;;3.10;2.20;;;26.70;69.70;;;;;;10359431;28;20044;-67
2022/07/19 12:27:35;;;;;;;2.75;2.40;;;26.80;69.70;;;;;;10345986;28;20048;-62
2022/07/19 12:32:45;;;;;;;5.18;2.30;;;26.90;70.00;;;;;;10368117;28;20273;-63
2022/07/19 12:37:50;;;;;;;4.28;2.35;;;26.90;69.10;;;;;;10361394;28;20634;-62
2022/07/19 12:43:04;;;;;;;2.70;1.92;;;27.00;69.50;;;;;;10361086;28;20305;-64
2022/07/19 12:48:05;;;;;;;2.20;1.85;;;27.10;69.00;;;;;;10360866;28;20033;-62
2022/07/19 12:53:08;;;;;;;3.03;1.90;;;27.20;69.30;;;;;;10360635;28;20289;-62
2022/07/19 12:58:10;;;;;;;3.75;2.00;;;27.30;68.40;;;;;;10341334;28;20029;-62
2022/07/19 13:03:10;;;;;;;3.33;2.08;;;27.30;68.10;;;;;;10343362;28;20049;-64
2022/07/19 13:08:11;;;;;;;2.70;1.98;;;27.40;67.90;;;;;;10356670;28;20552;-65
2022/07/19 13:13:11;;;;;;;3.20;1.90;;;27.50;67.80;;;;;;10361963;28;20033;-63
2022/07/19 13:18:12;;;;;;;2.45;1.88;;;27.60;67.50;;;;;;10355938;28;20480;-61
2022/07/19 13:23:13;;;;;;;3.63;1.90;;;27.70;67.20;;;;;;10355507;28;20442;-61
2022/07/19 13:28:14;;;;;;;2.47;2.03;;;27.80;66.90;;;;;;10342196;28;20033;-61
2022/07/19 13:33:15;;;;;;;2.65;1.80;;;27.90;66.60;;;;;;10356023;28;20037;-63
2022/07/19 13:38:16;;;;;;;2.95;1.95;;;28.00;66.50;;;;;;10362579;28;20036;-66
2022/07/19 13:43:17;;;;;;;4.43;2.05;;;28.10;66.50;;;;;;10364766;28;20040;-65
2022/07/19 13:48:17;;;;;;;2.42;1.92;;;28.20;66.10;;;;;;10362865;28;20039;-66
2022/07/19 13:53:18;;;;;;;2.60;2.05;;;28.30;65.90;;;;;;10358130;28;20632;-63
2022/07/19 13:58:19;;;;;;;3.08;1.75;;;28.40;65.90;;;;;;10350581;28;20056;-63
2022/07/19 14:03:20;;;;;;;3.45;2.00;;;28.60;65.60;;;;;;10356256;28;20037;-62
2022/07/19 14:08:21;;;;;;;2.35;2.00;;;28.80;65.60;;;;;;10365899;28;20044;-68
2022/07/19 14:13:22;;;;;;;2.72;2.15;;;28.80;65.30;;;;;;10362808;28;20770;-63
2022/07/19 14:18:22;;;;;;;4.53;1.90;;;28.90;64.90;;;;;;10360591;28;20124;-63
2022/07/19 14:23:23;;;;;;;2.63;1.88;;;29.10;64.90;;;;;;10360718;28;20379;-63
2022/07/19 14:28:24;;;;;;;5.43;1.90;;;29.20;65.00;;;;;;10363648;28;20021;-62
2022/07/19 14:33:26;;;;;;;4.38;2.35;;;29.30;65.00;;;;;;10361023;28;20049;-62
2022/07/19 14:38:26;;;;;;;3.75;1.90;;;29.50;64.80;;;;;;10358331;28;20520;-64
2022/07/19 14:43:27;;;;;;;2.28;1.77;;;29.60;64.50;;;;;;10360594;28;20049;-62
2022/07/19 14:48:28;;;;;;;2.95;2.00;;;29.60;64.40;;;;;;10364852;28;20037;-62
2022/07/19 14:53:29;;;;;;;3.05;2.00;;;29.80;64.20;;;;;;10360787;28;20252;-63
2022/07/19 14:58:29;;;;;;;2.78;1.80;;;29.90;64.20;;;;;;10358355;28;20144;-61
2022/07/19 15:03:31;;;;;;;2.53;1.85;;;30.00;63.90;;;;;;10343030;28;20041;-63
2022/07/19 15:08:32;;;;;;;6.30;1.98;;;30.10;63.70;;;;;;10356447;28;21182;-61
2022/07/19 15:13:33;;;;;;;2.53;2.08;;;30.20;63.60;;;;;;10351945;28;20035;-62
2022/07/19 15:18:33;;;;;;;4.90;2.17;;;30.20;63.60;;;;;;10356958;28;20039;-62
2022/07/19 15:23:34;;;;;;;5.80;2.42;;;30.50;62.80;;;;;;10334681;28;20411;-62
2022/07/19 15:28:36;;;;;;;3.45;2.10;;;30.70;62.40;;;;;;10361080;28;20152;-61
2022/07/19 15:33:37;;;;;;;2.90;2.08;;;30.80;62.50;;;;;;10348880;28;20563;-61
2022/07/19 15:38:38;;;;;;;2.85;2.40;;;30.70;62.50;;;;;;10359065;28;20077;-61
2022/07/19 15:43:39;;;;;;;2.67;2.13;;;30.80;63.00;;;;;;10267712;28;20685;-63
2022/07/19 15:48:40;;;;;;;5.13;2.45;;;30.80;63.30;;;;;;10336828;28;20602;-64
2022/07/19 15:53:40;;;;;;;4.57;2.13;;;30.80;63.50;;;;;;10335378;28;20041;-61
2022/07/19 15:58:41;;;;;;;2.60;2.40;;;30.80;63.60;;;;;;10341954;28;20044;-66
2022/07/19 16:03:42;;;;;;;3.45;2.05;;;30.80;63.90;;;;;;10353866;28;20037;-64
2022/07/19 16:08:43;;;;;;;3.17;2.33;;;30.80;64.00;;;;;;10346642;28;20038;-70
2022/07/19 16:13:44;;;;;;;4.78;2.97;;;30.80;63.70;;;;;;10344428;28;20482;-61
2022/07/19 16:18:45;;;;;;;2.90;2.28;;;30.70;63.60;;;;;;10337580;28;20384;-64
2022/07/19 16:23:46;;;;;;;2.60;2.20;;;30.70;64.00;;;;;;10330679;28;20910;-62
2022/07/19 16:28:46;;;;;;;4.30;2.78;;;30.70;64.20;;;;;;10324792;28;20541;-64
2022/07/19 16:33:50;;;;;;;4.18;2.88;;;30.60;64.40;;;;;;10333608;28;20029;-62
2022/07/19 16:38:51;;;;;;;3.47;2.38;;;30.40;64.50;;;;;;10337608;28;20353;-64
2022/07/19 16:43:51;;;;;;;2.60;2.05;;;30.60;65.10;;;;;;10339669;28;20480;-63
2022/07/19 16:53:58;;;;;;;3.75;2.42;;;30.30;65.80;;;;;;10333408;28;20053;-62
2022/07/19 16:58:59;;;;;;;5.90;3.13;;;30.40;66.10;;;;;;10336381;28;20045;-64
2022/07/19 17:04:00;;;;;;;7.75;2.83;;;30.50;64.50;;;;;;10333349;28;20439;-62
2022/07/19 17:09:03;;;;;;;3.30;2.65;;;30.60;64.30;;;;;;10334147;28;20480;-62
2022/07/19 17:14:04;;;;;;;5.40;2.67;;;30.50;64.50;;;;;;10335791;28;20029;-63
2022/07/19 17:19:05;;;;;;;4.57;2.88;;;30.50;65.10;;;;;;10346400;28;21307;-63
2022/07/19 17:24:06;;;;;;;3.80;2.85;;;30.40;65.60;;;;;;10344171;28;20298;-68
2022/07/19 17:29:07;;;;;;;6.75;2.80;;;30.30;65.80;;;;;;10354193;28;21011;-63
2022/07/19 17:34:08;;;;;;;4.07;3.42;;;30.30;65.10;;;;;;10349278;28;20041;-62
2022/07/19 17:39:10;;;;;;;3.67;3.05;;;30.30;65.40;;;;;;10341806;28;20029;-60
2022/07/19 17:44:10;;;;;;;11.95;3.20;;;30.50;64.20;;;;;;10346694;28;20531;-62
2022/07/19 17:49:11;;;;;;;3.33;2.95;;;30.60;63.10;;;;;;10351358;28;20025;-69
2022/07/19 17:54:12;;;;;;;4.65;3.00;;;30.70;62.50;;;;;;10351322;28;20107;-62
2022/07/19 17:59:13;;;;;;;9.30;3.05;;;30.70;62.40;;;;;;10348859;28;20041;-70
2022/07/19 18:04:14;;;;;;;3.95;3.05;;;30.70;62.10;;;;;;10361925;28;20392;-71
2022/07/19 18:09:14;;;;;;;3.22;2.40;;;30.60;62.00;;;;;;10365179;28;20052;-61
2022/07/19 18:14:16;;;;;;;6.30;3.28;;;30.60;62.40;;;;;;10358090;28;20036;-66
2022/07/19 18:19:16;;;;;;;4.85;3.10;;;30.50;62.60;;;;;;10352009;28;20475;-69
2022/07/19 18:24:17;;;;;;;8.57;3.25;;;30.40;62.80;;;;;;10358568;28;20748;-71
2022/07/19 18:29:18;;;;;;;8.15;3.05;;;30.30;63.20;;;;;;10359757;28;20107;-61
2022/07/19 18:34:19;;;;;;;3.95;3.10;;;30.20;63.40;;;;;;10358034;28;20616;-61
2022/07/19 18:39:20;;;;;;;5.10;3.00;;;30.10;63.80;;;;;;10353356;28;20044;-70
2022/07/19 18:44:21;;;;;;;5.60;3.10;;;30.10;64.10;;;;;;10344241;28;20152;-71
2022/07/19 18:49:22;;;;;;;6.28;3.10;;;30.00;64.20;;;;;;10353562;28;20061;-71
2022/07/19 18:54:23;;;;;;;4.97;3.17;;;29.90;64.20;;;;;;10358004;28;20423;-78
2022/07/19 18:59:24;;;;;;;9.40;3.70;;;29.80;64.30;;;;;;10363927;28;20033;-77
2022/07/19 19:04:24;;;;;;;5.38;3.40;;;29.80;64.00;;;;;;10359231;28;20393;-78
2022/07/19 19:09:28;;;;;;;7.25;3.78;;;29.70;64.20;;;;;;10358048;28;20290;-80
2022/07/19 19:14:29;;;;;;;6.00;3.42;;;29.60;64.50;;;;;;10357600;28;20820;-69
2022/07/19 19:19:30;;;;;;;7.93;3.17;;;29.40;65.10;;;;;;10343357;28;20469;-70
2022/07/19 19:24:30;;;;;;;6.43;3.75;;;29.30;65.60;;;;;;10351118;28;20606;-72
2022/07/19 19:29:34;;;;;;;4.78;3.58;;;29.10;66.20;;;;;;10345249;28;20029;-72
2022/07/19 19:34:38;;;;;;;7.65;3.70;;;28.90;66.20;;;;;;10352504;28;20136;-79
2022/07/19 19:39:38;;;;;;;5.57;3.40;;;28.80;66.30;;;;;;10348211;28;20485;-69
2022/07/19 19:44:39;;;;;;;15.07;3.92;;;28.60;66.10;;;;;;10346935;28;20323;-79
2022/07/19 19:49:40;;;;;;;5.10;3.47;;;28.50;66.80;;;;;;10348314;28;20119;-62
2022/07/19 19:54:41;;;;;;;9.55;3.72;;;28.30;67.30;;;;;;10351308;28;20648;-61
2022/07/19 19:59:41;;;;;;;4.68;3.22;;;28.20;66.80;;;;;;10355612;28;20144;-73
2022/07/19 20:04:42;;;;;;;7.28;3.75;;;28.20;66.60;;;;;;10345680;28;20498;-63
2022/07/19 20:09:43;;;;;;;5.97;3.47;;;28.20;66.20;;;;;;10342642;28;20036;-75
2022/07/19 20:14:44;;;;;;;5.10;3.40;;;28.20;66.10;;;;;;10346307;28;20076;-73
2022/07/19 20:19:45;;;;;;;6.35;3.40;;;28.20;65.90;;;;;;10359659;28;20041;-70
2022/07/19 20:24:46;;;;;;;4.32;3.22;;;28.10;65.40;;;;;;10416893;28;20535;-70
2022/07/19 20:29:46;;;;;;;9.68;3.65;;;28.10;65.00;;;;;;10417340;28;20048;-66
2022/07/19 20:34:48;;;;;;;10.05;3.70;;;28.00;65.00;;;;;;10414055;28;20021;-63
2022/07/19 20:39:48;;;;;;;7.07;3.53;;;27.90;65.10;;;;;;10420022;28;20041;-62
2022/07/19 20:44:49;;;;;;;7.40;3.72;;;27.70;65.50;;;;;;10411463;28;20043;-63
2022/07/19 20:49:50;;;;;;;5.75;3.55;;;27.60;65.70;;;;;;10413559;28;20033;-64
2022/07/19 20:54:50;;;;;;;6.10;3.97;;;27.50;65.60;;;;;;10411249;28;20495;-65
2022/07/19 20:59:51;;;;;;;6.30;3.58;;;27.50;65.40;;;;;;10419378;28;20468;-64
2022/07/19 21:04:52;;;;;;;8.45;4.30;;;27.40;65.10;;;;;;10418320;28;20539;-63
2022/07/19 21:09:52;;;;;;;6.50;3.80;;;27.40;65.10;;;;;;10410768;28;20167;-62
2022/07/19 21:14:53;;;;;;;5.00;3.65;;;27.40;65.40;;;;;;10414493;28;20079;-63
2022/07/19 21:19:54;;;;;;;5.80;3.00;;;27.50;65.50;;;;;;10419037;28;20464;-61
2022/07/19 21:24:54;;;;;;;4.18;3.40;;;27.60;65.60;;;;;;10416315;28;20035;-62
2022/07/19 21:29:55;;;;;;;5.13;3.75;;;27.70;65.90;;;;;;10413841;28;20029;-61
2022/07/19 21:34:56;;;;;;;4.72;3.78;;;27.70;66.00;;;;;;10411515;28;20029;-61
2022/07/19 21:39:56;;;;;;;5.75;3.75;;;27.70;66.10;;;;;;10408999;28;20040;-61
2022/07/19 21:44:57;;;;;;;5.22;3.63;;;27.70;66.20;;;;;;10409562;28;20452;-60
2022/07/19 21:49:58;;;;;;;4.43;3.63;;;27.70;66.40;;;;;;10411823;28;20120;-62
2022/07/19 21:54:58;;;;;;;4.30;3.40;;;27.60;65.90;;;;;;10413111;28;20519;-61
2022/07/19 21:59:59;;;;;;;6.43;3.67;;;27.60;66.60;;;;;;10415223;28;20042;-63
2022/07/19 22:05:00;;;;;;;5.00;3.75;;;27.60;66.80;;;;;;10412455;28;20032;-62
2022/07/19 22:10:01;;;;;;;6.53;3.42;;;27.60;67.00;;;;;;10413064;28;20029;-61
2022/07/19 22:15:03;;;;;;;5.32;3.30;;;27.50;67.00;;;;;;10413195;28;20022;-61
2022/07/19 22:20:05;;;;;;;4.03;3.58;;;27.50;67.20;;;;;;10410943;28;20032;-61
2022/07/19 22:25:06;;;;;;;7.10;3.70;;;27.50;67.30;;;;;;10411449;28;20384;-62
2022/07/19 22:30:07;;;;;;;7.88;3.70;;;27.40;67.40;;;;;;10417165;28;20029;-62
2022/07/19 22:35:08;;;;;;;5.63;3.72;;;27.40;67.50;;;;;;10413443;28;20034;-62
2022/07/19 22:40:10;;;;;;;4.85;3.58;;;27.30;67.60;;;;;;10412015;28;20049;-62
2022/07/19 22:45:11;;;;;;;3.92;3.42;;;27.30;67.70;;;;;;10410174;28;20021;-62
2022/07/19 22:50:12;;;;;;;4.28;3.40;;;27.20;67.80;;;;;;10410274;28;20053;-62
2022/07/19 22:55:12;;;;;;;5.75;3.33;;;27.20;67.90;;;;;;10411210;28;20036;-61
2022/07/19 23:00:14;;;;;;;5.32;3.55;;;27.20;68.00;;;;;;10411209;28;20484;-62
2022/07/19 23:05:15;;;;;;;4.45;3.50;;;27.10;68.00;;;;;;10411340;28;20025;-62
2022/07/19 23:10:15;;;;;;;5.68;3.72;;;27.10;68.10;;;;;;10409515;28;20040;-61
2022/07/19 23:15:16;;;;;;;7.40;3.80;;;27.00;68.10;;;;;;10413386;28;20022;-62
2022/07/19 23:20:17;;;;;;;5.75;3.88;;;27.00;68.20;;;;;;10411869;28;20525;-62
2022/07/19 23:25:18;;;;;;;4.47;3.30;;;26.90;68.20;;;;;;10404382;28;20029;-62
2022/07/19 23:30:19;;;;;;;6.07;4.05;;;26.90;68.20;;;;;;10404477;28;20029;-62
2022/07/19 23:35:20;;;;;;;5.15;3.55;;;26.90;68.30;;;;;;10403294;28;20101;-62
2022/07/19 23:40:21;;;;;;;5.18;3.63;;;26.80;68.30;;;;;;10402618;28;20475;-61
2022/07/19 23:45:22;;;;;;;4.53;3.78;;;26.80;68.30;;;;;;10403217;28;20021;-62
2022/07/19 23:50:23;;;;;;;4.72;3.45;;;26.70;68.30;;;;;;10403053;28;20056;-62
2022/07/19 23:55:24;;;;;;;3.70;3.40;;;26.70;68.30;;;;;;10405723;28;20066;-62
